Time;durP1;ratioP1;P1;durP2;ratioP2;P2;SDS_P1;SDS_P2;PMS_P1;PMS_P2;Temp;Humidity;BMP_temperature;BMP_pressure;BME280_temperature;BME280_humidity;BME280_pressure;Samples;Min_cycle;Max_cycle;Signal;HPM_P1;HPM_P2
2021/10/04 00:02:27;;;;;;;3.10;0.85;;;;;;;15.25;63.27;101107.06;4950610;28;114286;-68
2021/10/04 00:04:54;;;;;;;1.95;1.00;;;;;;;15.26;63.23;101102.63;4964153;28;113293;-68
2021/10/04 00:07:22;;;;;;;2.78;0.90;;;;;;;15.25;63.27;101107.06;4961673;28;123911;-68
2021/10/04 00:09:49;;;;;;;2.20;1.00;;;;;;;15.24;63.41;101110.72;4967602;28;124275;-68
2021/10/04 00:12:16;;;;;;;1.90;1.00;;;;;;;15.25;63.40;101122.22;4969230;28;114859;-68
2021/10/04 00:14:43;;;;;;;2.88;0.95;;;;;;;15.24;63.40;101132.06;4970877;28;114029;-68
2021/10/04 00:17:11;;;;;;;3.53;0.82;;;;;;;15.23;63.38;101141.00;4968852;28;124198;-68
2021/10/04 00:19:39;;;;;;;2.33;0.98;;;;;;;15.25;63.36;101139.09;4966974;28;124356;-68
2021/10/04 00:22:06;;;;;;;2.00;0.90;;;;;;;15.25;63.36;101139.09;4951323;28;114339;-68
2021/10/04 00:24:33;;;;;;;3.13;1.00;;;;;;;15.26;63.28;101130.16;4956554;28;112895;-68
2021/10/04 00:27:01;;;;;;;2.10;1.02;;;;;;;15.27;63.20;101137.19;4973114;28;123997;-68
2021/10/04 00:29:28;;;;;;;2.92;0.85;;;;;;;15.28;63.43;101138.91;4947472;28;123005;-67
2021/10/04 00:31:55;;;;;;;2.58;0.95;;;;;;;15.27;63.33;101139.84;4968858;28;114185;-68
2021/10/04 00:34:22;;;;;;;1.58;0.90;;;;;;;15.29;63.42;101140.63;4972064;28;114294;-67
2021/10/04 00:36:51;;;;;;;2.42;0.70;;;;;;;15.31;63.31;101154.75;4973760;28;123966;-68
2021/10/04 00:39:23;;;;;;;3.53;1.10;;;;;;;15.33;63.33;101147.50;4969557;28;124176;-68
2021/10/04 00:41:50;;;;;;;4.07;1.00;;;;;;;15.35;63.17;101150.06;4968626;28;115253;-68
2021/10/04 00:44:18;;;;;;;3.53;1.05;;;;;;;15.36;63.29;101149.97;4970956;28;114912;-68
2021/10/04 00:46:46;;;;;;;2.15;1.00;;;;;;;15.37;63.22;101159.72;4969042;28;124953;-68
2021/10/04 00:49:13;;;;;;;3.50;0.90;;;;;;;15.38;63.20;101161.41;4971005;28;123924;-67
2021/10/04 00:51:40;;;;;;;2.13;0.80;;;;;;;15.41;63.23;101175.53;4972236;28;114970;-68
2021/10/04 00:54:07;;;;;;;3.03;1.00;;;;;;;15.43;63.16;101168.31;4971761;28;114252;-68
2021/10/04 00:56:34;;;;;;;2.60;0.90;;;;;;;15.44;63.21;101165.53;4956665;28;123266;-68
2021/10/04 00:59:02;;;;;;;4.68;1.00;;;;;;;15.47;63.11;101175.19;4973216;28;124323;-68
2021/10/04 01:01:30;;;;;;;1.55;0.80;;;;;;;15.48;62.90;101176.88;4953540;28;114156;-68
2021/10/04 01:04:00;;;;;;;1.63;0.75;;;;;;;15.48;62.84;101177.75;4970764;28;114284;-68
2021/10/04 01:06:28;;;;;;;2.33;0.95;;;;;;;15.47;63.00;101181.38;4972594;28;124165;-68
2021/10/04 01:08:55;;;;;;;2.72;0.77;;;;;;;15.48;62.89;101177.75;4966578;28;123842;-68
2021/10/04 01:11:23;;;;;;;3.65;1.08;;;;;;;15.50;62.73;101180.31;4954067;28;113877;-68
2021/10/04 01:13:51;;;;;;;1.77;0.77;;;;;;;15.50;62.81;101191.00;4969089;28;114705;-68
2021/10/04 01:16:18;;;;;;;4.22;0.80;;;;;;;15.51;62.74;101187.38;4969811;28;124335;-68
2021/10/04 01:18:46;;;;;;;2.95;0.80;;;;;;;15.52;62.99;101178.41;4970086;28;123819;-68
2021/10/04 01:21:13;;;;;;;1.48;0.70;;;;;;;15.52;62.79;101173.06;4948814;28;115342;-68
2021/10/04 01:23:40;;;;;;;2.45;0.70;;;;;;;15.51;62.66;101168.69;4956171;28;112893;-68
2021/10/04 01:26:08;;;;;;;1.23;0.70;;;;;;;15.50;62.74;101174.97;4967469;28;123867;-68
2021/10/04 01:28:35;;;;;;;1.95;0.80;;;;;;;15.52;62.52;101189.09;4952636;28;123790;-68
2021/10/04 01:31:02;;;;;;;2.03;0.80;;;;;;;15.53;62.67;101180.13;4969960;28;115807;-68
2021/10/04 01:33:29;;;;;;;2.90;0.82;;;;;;;15.54;62.71;101184.53;4954063;28;114643;-68
2021/10/04 01:35:56;;;;;;;2.25;0.85;;;;;;;15.54;62.55;101187.22;4966738;28;124835;-68
2021/10/04 01:38:24;;;;;;;2.05;0.90;;;;;;;15.54;62.50;101192.56;4959799;28;123941;-68
2021/10/04 01:40:51;;;;;;;2.65;0.70;;;;;;;15.55;62.54;101194.25;4970327;28;114273;-67
2021/10/04 01:43:18;;;;;;;1.30;0.80;;;;;;;15.55;62.46;101194.25;4970906;28;114594;-68
2021/10/04 01:45:45;;;;;;;1.88;0.90;;;;;;;15.55;62.61;101183.56;4951434;28;122968;-68
2021/10/04 01:48:13;;;;;;;1.42;0.73;;;;;;;15.57;62.47;101189.69;4965872;28;123876;-68
2021/10/04 01:50:40;;;;;;;1.38;0.70;;;;;;;15.56;62.38;101190.66;4950868;28;113309;-68
2021/10/04 01:53:09;;;;;;;3.35;0.70;;;;;;;15.55;62.28;101168.41;4971368;28;114357;-67
2021/10/04 01:55:37;;;;;;;1.75;0.70;;;;;;;15.55;62.26;101179.09;4955300;28;124207;-68
2021/10/04 01:58:04;;;;;;;2.17;0.80;;;;;;;15.54;62.29;101181.88;4949893;28;123972;-68
2021/10/04 02:00:33;;;;;;;1.80;0.70;;;;;;;15.53;62.23;101185.47;4962288;28;114490;-67
2021/10/04 02:03:00;;;;;;;1.73;1.00;;;;;;;15.53;62.36;101174.81;4967434;28;114649;-67
2021/10/04 02:05:29;;;;;;;3.63;0.90;;;;;;;15.54;62.43;101179.22;4963154;28;124849;-68
2021/10/04 02:07:57;;;;;;;1.75;0.80;;;;;;;15.54;62.26;101181.88;4967425;28;123763;-68
2021/10/04 02:10:28;;;;;;;3.15;0.80;;;;;;;15.54;62.20;101171.19;4961726;28;114320;-68
2021/10/04 02:12:57;;;;;;;2.35;0.70;;;;;;;15.56;62.18;101169.28;4962860;28;114403;-68
2021/10/04 02:15:24;;;;;;;1.10;0.57;;;;;;;15.56;62.12;101174.63;4963699;28;124551;-68
2021/10/04 02:17:52;;;;;;;2.22;0.90;;;;;;;15.57;62.06;101181.66;4959458;28;124085;-68
2021/10/04 02:20:23;;;;;;;2.75;0.80;;;;;;;15.57;61.95;101192.34;4959217;28;115474;-68
2021/10/04 02:22:50;;;;;;;2.53;0.90;;;;;;;15.56;62.11;101201.31;4968651;28;115492;-68
2021/10/04 02:25:17;;;;;;;2.08;0.88;;;;;;;15.57;62.08;101198.53;4951332;28;122810;-68
2021/10/04 02:27:46;;;;;;;2.55;0.70;;;;;;;15.58;61.95;101194.09;4962904;28;123728;-68
2021/10/04 02:30:20;;;;;;;2.42;0.80;;;;;;;15.61;62.02;101188.53;4956043;28;115120;-68
2021/10/04 02:32:47;;;;;;;2.50;0.90;;;;;;;15.61;61.84;101188.53;4948201;28;114588;-68
2021/10/04 02:35:14;;;;;;;1.50;0.65;;;;;;;15.62;62.00;101200.09;4961006;28;123848;-69
2021/10/04 02:37:42;;;;;;;4.22;0.98;;;;;;;15.62;61.88;101195.59;4954306;28;123611;-68
2021/10/04 02:40:10;;;;;;;1.38;0.95;;;;;;;15.62;61.81;101190.28;4938160;28;113096;-68
2021/10/04 02:42:38;;;;;;;1.75;0.82;;;;;;;15.63;61.80;101186.63;4955441;28;114423;-68
2021/10/04 02:45:07;;;;;;;3.38;0.93;;;;;;;15.63;61.87;101177.78;4959763;28;124058;-68
2021/10/04 02:47:35;;;;;;;2.33;0.77;;;;;;;15.65;61.77;101190.09;4962476;28;124877;-68
2021/10/04 02:50:05;;;;;;;1.08;0.70;;;;;;;15.66;61.62;101186.44;4963361;28;114393;-68
2021/10/04 02:52:32;;;;;;;2.15;0.70;;;;;;;15.67;61.65;101196.19;4961406;28;113659;-68
2021/10/04 02:54:59;;;;;;;3.88;0.80;;;;;;;15.67;61.50;101193.53;4950583;28;123002;-68
2021/10/04 02:57:27;;;;;;;1.40;0.70;;;;;;;15.66;61.48;101191.78;4967119;28;124710;-68
2021/10/04 02:59:54;;;;;;;1.73;0.90;;;;;;;15.66;61.49;101197.13;4968199;28;114116;-68
2021/10/04 03:02:23;;;;;;;3.72;0.90;;;;;;;15.67;61.18;101198.88;4972120;28;114386;-68
2021/10/04 03:04:50;;;;;;;3.58;0.85;;;;;;;15.67;61.44;101198.88;4969277;28;123850;-68
2021/10/04 03:07:18;;;;;;;2.25;0.80;;;;;;;15.67;61.29;101201.53;4962691;28;124348;-67
2021/10/04 03:09:45;;;;;;;2.38;0.95;;;;;;;15.66;61.19;101202.47;4965948;28;116053;-68
2021/10/04 03:12:12;;;;;;;2.65;0.80;;;;;;;15.67;61.30;101198.88;4966787;28;115494;-68
2021/10/04 03:14:39;;;;;;;1.27;0.68;;;;;;;15.67;61.34;101209.53;4969499;28;124879;-68
2021/10/04 03:17:06;;;;;;;1.88;0.80;;;;;;;15.68;61.29;101213.91;4968378;28;123988;-68
2021/10/04 03:19:33;;;;;;;3.58;0.80;;;;;;;15.69;61.19;101223.66;4950568;28;113502;-68
2021/10/04 03:22:01;;;;;;;3.20;0.90;;;;;;;15.70;61.15;101221.84;4966828;28;114204;-68
2021/10/04 03:24:28;;;;;;;2.10;0.68;;;;;;;15.71;61.08;101221.75;4966744;28;124415;-68
2021/10/04 03:26:55;;;;;;;3.50;0.90;;;;;;;15.72;61.04;101228.78;4972264;28;123774;-67
2021/10/04 03:29:22;;;;;;;3.17;1.00;;;;;;;15.72;61.11;101218.13;4966025;28;114883;-67
2021/10/04 03:31:50;;;;;;;1.45;0.70;;;;;;;15.73;61.19;101235.91;4951857;28;113051;-67
2021/10/04 03:34:17;;;;;;;2.00;0.77;;;;;;;15.73;60.85;101230.56;4958654;28;123622;-67
2021/10/04 03:36:44;;;;;;;2.80;0.80;;;;;;;15.74;60.89;101237.59;4965960;28;124125;-68
2021/10/04 03:39:12;;;;;;;5.07;1.10;;;;;;;15.72;61.14;101228.78;4965212;28;114788;-67
2021/10/04 03:41:39;;;;;;;3.92;0.77;;;;;;;15.72;61.06;101228.78;4968905;28;114203;-67
2021/10/04 03:44:07;;;;;;;2.42;1.52;;;;;;;15.72;60.99;101239.47;4961029;28;124374;-68
2021/10/04 03:46:34;;;;;;;2.67;0.90;;;;;;;15.72;60.90;101239.47;4968176;28;124294;-68
2021/10/04 03:49:02;;;;;;;1.83;0.90;;;;;;;15.70;60.75;101246.72;4959757;28;114187;-68
2021/10/04 03:51:29;;;;;;;2.35;0.90;;;;;;;15.69;60.89;101249.47;4952767;28;114079;-68
2021/10/04 03:53:57;;;;;;;2.78;0.70;;;;;;;15.68;60.83;101247.78;4954852;28;122916;-67
2021/10/04 03:56:25;;;;;;;3.47;0.80;;;;;;;15.65;60.86;101254.19;4968965;28;123906;-68
2021/10/04 03:58:52;;;;;;;2.70;0.98;;;;;;;15.64;60.84;101256.94;4968651;28;115122;-68
2021/10/04 04:01:19;;;;;;;2.13;0.70;;;;;;;15.62;60.85;101261.50;4954794;28;114273;-68
2021/10/04 04:03:51;;;;;;;3.30;1.00;;;;;;;15.61;61.07;101257.94;4949788;28;123897;-67
2021/10/04 04:06:19;;;;;;;1.10;0.60;;;;;;;15.60;60.82;101258.91;4969744;28;124528;-68
2021/10/04 04:08:47;;;;;;;3.45;0.90;;;;;;;15.58;60.98;101258.16;4971838;28;114643;-68
2021/10/04 04:11:14;;;;;;;2.72;0.85;;;;;;;15.58;60.91;101271.50;4971728;28;113408;-68
2021/10/04 04:13:41;;;;;;;1.60;0.80;;;;;;;15.58;61.04;101263.50;4959959;28;124777;-68
2021/10/04 04:16:09;;;;;;;2.10;0.80;;;;;;;15.58;60.91;101263.50;4968816;28;124011;-69
2021/10/04 04:18:36;;;;;;;1.55;0.75;;;;;;;15.56;60.91;101276.09;4956463;28;113504;-68
2021/10/04 04:21:04;;;;;;;1.38;0.80;;;;;;;15.55;60.86;101285.03;4970041;28;114324;-69
2021/10/04 04:23:31;;;;;;;2.67;0.70;;;;;;;15.54;60.94;101272.66;4969038;28;124055;-68
2021/10/04 04:25:58;;;;;;;2.17;0.70;;;;;;;15.55;60.99;101266.34;4957236;28;123675;-67
2021/10/04 04:28:26;;;;;;;3.22;0.88;;;;;;;15.53;60.88;101257.56;4959137;28;114393;-67
2021/10/04 04:30:53;;;;;;;2.13;0.70;;;;;;;15.53;60.86;101271.75;4972577;28;113925;-67
2021/10/04 04:33:20;;;;;;;3.35;0.80;;;;;;;15.53;60.85;101270.91;4969174;28;124147;-68
2021/10/04 04:35:47;;;;;;;1.67;0.80;;;;;;;15.54;61.01;101261.97;4970127;28;124274;-67
2021/10/04 04:38:15;;;;;;;2.40;0.90;;;;;;;15.53;60.91;101261.09;4963757;28;114305;-67
2021/10/04 04:40:42;;;;;;;3.30;1.00;;;;;;;15.53;60.93;101260.22;4972435;28;113883;-67
2021/10/04 04:43:09;;;;;;;2.60;0.60;;;;;;;15.54;60.96;101280.66;4970878;28;123923;-67
2021/10/04 04:45:37;;;;;;;3.08;1.05;;;;;;;15.54;61.00;101267.31;4967097;28;124678;-67
2021/10/04 04:48:04;;;;;;;1.20;0.70;;;;;;;15.54;60.99;101261.97;4972405;28;115695;-68
2021/10/04 04:50:32;;;;;;;1.52;0.57;;;;;;;15.53;60.97;101270.91;4970262;28;114769;-67
2021/10/04 04:52:59;;;;;;;1.60;0.77;;;;;;;15.52;60.80;101274.50;4970809;28;124849;-67
2021/10/04 04:55:26;;;;;;;2.50;0.80;;;;;;;15.52;60.79;101274.50;4965635;28;123852;-67
2021/10/04 04:57:53;;;;;;;2.47;0.88;;;;;;;15.51;60.93;101286.16;4969341;28;115086;-68
2021/10/04 05:00:20;;;;;;;1.65;0.85;;;;;;;15.51;60.98;101288.84;4966436;28;114568;-67
2021/10/04 05:02:47;;;;;;;0.90;0.60;;;;;;;15.51;60.79;101294.16;4973941;28;124474;-67
2021/10/04 05:05:17;;;;;;;1.60;0.70;;;;;;;15.51;60.95;101283.50;4968557;28;124242;-67
2021/10/04 05:07:45;;;;;;;1.98;0.90;;;;;;;15.52;60.79;101287.88;4974170;28;114612;-67
2021/10/04 05:10:12;;;;;;;1.00;0.70;;;;;;;15.51;60.79;101296.84;4962403;28;114695;-67
2021/10/04 05:12:40;;;;;;;1.48;0.68;;;;;;;15.51;60.70;101307.53;4972056;28;124430;-67
2021/10/04 05:15:08;;;;;;;2.28;0.90;;;;;;;15.49;60.79;101296.94;4949549;28;122913;-67
2021/10/04 05:17:35;;;;;;;4.45;0.90;;;;;;;15.49;60.90;101301.41;4969044;28;113683;-67
2021/10/04 05:20:04;;;;;;;1.23;0.77;;;;;;;15.49;60.69;101301.41;4965690;28;114282;-67
2021/10/04 05:22:31;;;;;;;3.13;0.70;;;;;;;15.49;60.90;101304.09;4971067;28;124521;-67
2021/10/04 05:24:59;;;;;;;2.25;0.80;;;;;;;15.48;60.89;101305.91;4953358;28;123885;-67
2021/10/04 05:27:26;;;;;;;2.88;0.85;;;;;;;15.48;60.92;101299.69;4968575;28;114508;-67
2021/10/04 05:29:53;;;;;;;1.65;0.80;;;;;;;15.48;60.79;101297.00;4969836;28;113979;-67
2021/10/04 05:32:20;;;;;;;2.53;0.90;;;;;;;15.47;60.77;101308.66;4971106;28;124760;-67
2021/10/04 05:34:52;;;;;;;6.13;0.98;;;;;;;15.47;60.63;101314.00;4973354;28;123797;-69
2021/10/04 05:37:20;;;;;;;2.20;0.80;;;;;;;15.47;61.18;101320.19;4969472;28;115422;-69
2021/10/04 05:39:47;;;;;;;5.57;0.80;;;;;;;15.47;60.76;101320.19;4971551;28;115651;-67
2021/10/04 05:42:14;;;;;;;1.45;0.75;;;;;;;15.48;60.70;101321.03;4969945;28;123834;-68
2021/10/04 05:44:41;;;;;;;2.03;0.80;;;;;;;15.48;60.85;101326.38;4972269;28;123688;-68
2021/10/04 05:47:08;;;;;;;5.13;0.95;;;;;;;15.46;60.85;101318.44;4954872;28;115031;-67
2021/10/04 05:49:36;;;;;;;4.38;0.85;;;;;;;15.48;61.00;101321.03;4954037;28;112072;-67
2021/10/04 05:52:03;;;;;;;2.47;0.80;;;;;;;15.49;60.76;101333.44;4960945;28;124074;-67
2021/10/04 05:54:30;;;;;;;2.80;0.80;;;;;;;15.48;60.84;101337.06;4953505;28;122613;-68
2021/10/04 05:56:57;;;;;;;4.18;1.02;;;;;;;15.49;60.65;101338.78;4970086;28;114621;-67
2021/10/04 05:59:25;;;;;;;3.53;0.77;;;;;;;15.49;60.67;101344.97;4955272;28;113038;-68
2021/10/04 06:01:52;;;;;;;3.22;0.80;;;;;;;15.49;60.76;101341.47;4970563;28;124417;-68
2021/10/04 06:04:19;;;;;;;1.02;0.63;;;;;;;15.50;60.84;101336.03;4970649;28;123928;-67
2021/10/04 06:06:46;;;;;;;5.22;0.90;;;;;;;15.49;60.72;101323.63;4969811;28;114687;-68
2021/10/04 06:09:13;;;;;;;3.55;0.90;;;;;;;15.49;60.79;101339.63;4968441;28;114536;-67
2021/10/04 06:11:41;;;;;;;3.35;1.20;;;;;;;15.51;60.69;101332.41;4970796;28;124442;-67
2021/10/04 06:14:08;;;;;;;1.60;0.70;;;;;;;15.52;60.74;101335.91;4969949;28;123791;-67
2021/10/04 06:16:36;;;;;;;2.78;1.05;;;;;;;15.50;60.73;101349.38;4954864;28;113338;-67
2021/10/04 06:19:04;;;;;;;3.35;0.70;;;;;;;15.51;60.60;101369.78;4970725;28;113826;-67
2021/10/04 06:21:31;;;;;;;2.40;0.85;;;;;;;15.52;60.75;101370.63;4954697;28;123245;-67
2021/10/04 06:23:58;;;;;;;2.00;0.70;;;;;;;15.52;60.68;101386.66;4970047;28;124622;-67
2021/10/04 06:26:25;;;;;;;2.25;0.85;;;;;;;15.52;60.70;101389.31;4956422;28;114449;-67
2021/10/04 06:28:53;;;;;;;1.58;0.80;;;;;;;15.53;60.65;101391.06;4966854;28;114752;-67
2021/10/04 06:31:20;;;;;;;2.53;0.98;;;;;;;15.53;60.44;101399.06;4960029;28;124070;-67
2021/10/04 06:33:48;;;;;;;2.63;0.90;;;;;;;15.54;60.60;101406.13;4955064;28;122927;-67
2021/10/04 06:36:15;;;;;;;2.25;0.77;;;;;;;15.54;60.65;101403.47;4968915;28;114162;-67
2021/10/04 06:38:42;;;;;;;3.15;0.85;;;;;;;15.56;60.77;101404.22;4966782;28;113694;-67
2021/10/04 06:41:10;;;;;;;1.33;0.90;;;;;;;15.57;60.79;101411.28;4965743;28;124914;-68
2021/10/04 06:43:37;;;;;;;2.33;0.75;;;;;;;15.58;60.57;101423.69;4952018;28;123231;-67
2021/10/04 06:46:07;;;;;;;1.85;0.70;;;;;;;15.60;60.63;101413.78;4964403;28;114707;-67
2021/10/04 06:48:36;;;;;;;2.58;0.60;;;;;;;15.61;60.65;101407.47;4951299;28;112924;-67
2021/10/04 06:51:05;;;;;;;2.63;0.70;;;;;;;15.63;60.63;101405.59;4966379;28;124712;-68
2021/10/04 06:53:33;;;;;;;1.45;0.85;;;;;;;15.65;60.48;101414.41;4962931;28;124686;-68
2021/10/04 06:56:01;;;;;;;2.42;0.77;;;;;;;15.67;60.64;101423.19;4963357;28;114343;-68
2021/10/04 06:58:28;;;;;;;2.28;0.90;;;;;;;15.69;60.60;101421.28;4953858;28;112989;-68
2021/10/04 07:00:55;;;;;;;1.08;0.60;;;;;;;15.72;60.59;101425.56;4968996;28;124167;-68
2021/10/04 07:03:22;;;;;;;5.00;0.80;;;;;;;15.74;60.47;101419.22;4942996;28;123871;-68
2021/10/04 07:05:51;;;;;;;1.20;0.80;;;;;;;15.76;60.59;101428.03;4952858;28;113441;-67
2021/10/04 07:08:18;;;;;;;1.42;0.65;;;;;;;15.80;60.50;101427.81;4952458;28;114229;-67
2021/10/04 07:10:46;;;;;;;1.92;0.70;;;;;;;15.81;60.49;101418.88;4963452;28;124102;-66
2021/10/04 07:13:14;;;;;;;3.50;0.90;;;;;;;15.83;60.38;101427.66;4962619;28;124213;-66
2021/10/04 07:15:41;;;;;;;1.42;0.65;;;;;;;15.84;60.28;101413.34;4948857;28;115306;-67
2021/10/04 07:18:08;;;;;;;1.83;0.80;;;;;;;15.85;60.30;101428.44;4968945;28;115896;-66
2021/10/04 07:20:35;;;;;;;2.42;0.80;;;;;;;15.87;60.39;101421.19;4968846;28;124226;-66
2021/10/04 07:23:03;;;;;;;2.00;0.90;;;;;;;15.87;60.38;101435.41;4965856;28;124629;-66
2021/10/04 07:25:32;;;;;;;2.15;0.80;;;;;;;15.89;60.28;101432.63;4966085;28;114978;-66
2021/10/04 07:28:01;;;;;;;2.35;0.70;;;;;;;15.90;60.31;101429.03;4948759;28;113439;-66
2021/10/04 07:30:28;;;;;;;3.45;0.80;;;;;;;15.92;60.32;101427.13;4964715;28;123984;-66
2021/10/04 07:32:56;;;;;;;2.53;0.80;;;;;;;15.94;60.24;101430.56;4950906;28;124238;-66
2021/10/04 07:35:24;;;;;;;3.38;0.90;;;;;;;15.96;60.01;101423.31;4961327;28;115325;-66
2021/10/04 07:37:52;;;;;;;2.38;0.90;;;;;;;15.99;60.17;101427.63;4968003;28;114216;-67
2021/10/04 07:40:19;;;;;;;2.10;0.80;;;;;;;16.01;60.06;101436.41;4964449;28;124016;-66
2021/10/04 07:42:47;;;;;;;6.60;1.10;;;;;;;16.03;60.19;101434.50;4950165;28;122727;-66
2021/10/04 07:45:14;;;;;;;4.38;1.00;;;;;;;16.05;60.21;101449.50;4946546;28;114585;-66
2021/10/04 07:47:42;;;;;;;1.67;0.88;;;;;;;16.07;60.19;101447.59;4960234;28;114616;-65
2021/10/04 07:50:14;;;;;;;2.45;0.80;;;;;;;16.08;59.87;101445.78;4962882;28;124104;-67
2021/10/04 07:52:43;;;;;;;3.45;1.00;;;;;;;16.07;60.02;101442.25;4946665;28;124527;-66
2021/10/04 07:55:11;;;;;;;3.67;1.20;;;;;;;16.09;60.14;101445.69;4964058;28;113358;-67
2021/10/04 07:57:38;;;;;;;2.30;0.85;;;;;;;16.10;60.08;101436.72;4963888;28;114241;-66
2021/10/04 08:00:07;;;;;;;3.63;1.00;;;;;;;16.11;59.99;101446.47;4945038;28;123058;-67
2021/10/04 08:02:38;;;;;;;2.20;0.90;;;;;;;16.13;60.00;101443.72;4962978;28;125092;-66
2021/10/04 08:05:05;;;;;;;2.78;1.10;;;;;;;16.14;59.80;101448.97;4963011;28;114948;-66
2021/10/04 08:07:33;;;;;;;2.03;0.73;;;;;;;16.14;59.89;101443.63;4964989;28;114833;-66
2021/10/04 08:10:07;;;;;;;3.15;1.13;;;;;;;16.14;59.78;101442.75;4961733;28;123963;-66
2021/10/04 08:12:35;;;;;;;2.20;0.90;;;;;;;16.15;59.70;101437.31;4963533;28;123874;-66
2021/10/04 08:15:04;;;;;;;2.80;1.00;;;;;;;16.18;59.94;101443.44;4965955;28;114068;-67
2021/10/04 08:17:32;;;;;;;3.90;0.98;;;;;;;16.18;59.78;101448.78;4966340;28;113742;-67
2021/10/04 08:20:00;;;;;;;3.22;0.95;;;;;;;16.20;59.89;101457.56;4947060;28;122885;-66
2021/10/04 08:22:30;;;;;;;2.85;0.98;;;;;;;16.20;59.88;101446.88;4960132;28;124409;-66
2021/10/04 08:24:58;;;;;;;2.90;1.10;;;;;;;16.22;59.89;101451.19;4958366;28;114284;-66
2021/10/04 08:27:25;;;;;;;3.35;1.17;;;;;;;16.27;59.83;101453.56;4950264;28;113093;-66
2021/10/04 08:29:53;;;;;;;3.95;1.10;;;;;;;16.31;60.01;101455.13;4961103;28;124410;-66
2021/10/04 08:32:20;;;;;;;2.00;0.95;;;;;;;16.36;60.11;101458.38;4956127;28;123885;-67
2021/10/04 08:34:47;;;;;;;2.63;1.10;;;;;;;16.44;59.90;101456.09;4967683;28;114637;-67
2021/10/04 08:37:14;;;;;;;3.00;0.93;;;;;;;16.53;60.05;101455.53;4965097;28;115071;-66
2021/10/04 08:39:42;;;;;;;3.22;0.90;;;;;;;16.64;60.19;101456.72;4962294;28;123971;-66
2021/10/04 08:42:09;;;;;;;4.90;1.30;;;;;;;16.73;60.16;101442.78;4950232;28;123797;-66
2021/10/04 08:44:37;;;;;;;3.50;1.10;;;;;;;16.85;59.94;101444.72;4961931;28;113215;-67
2021/10/04 08:47:07;;;;;;;3.97;1.10;;;;;;;16.95;59.92;101433.47;4965354;28;113962;-66
2021/10/04 08:49:34;;;;;;;4.35;1.10;;;;;;;17.05;59.84;101434.63;4966932;28;123900;-67
2021/10/04 08:52:02;;;;;;;3.40;1.50;;;;;;;17.15;59.77;101446.44;4973225;28;123182;-67
2021/10/04 08:54:29;;;;;;;2.75;0.98;;;;;;;17.23;59.65;101443.28;4960970;28;115521;-66
2021/10/04 08:56:57;;;;;;;2.28;0.95;;;;;;;17.31;59.31;101452.56;4967337;28;114678;-66
2021/10/04 08:59:26;;;;;;;3.35;0.93;;;;;;;17.38;59.15;101442.31;4961881;28;123224;-67
2021/10/04 09:02:20;;;;;;;1.38;0.70;;;;;;;17.48;59.42;101447.97;4967093;28;124122;-67
2021/10/04 09:05:12;;;;;;;3.97;1.00;;;;;;;17.58;59.33;101449.06;4963580;28;114505;-67
2021/10/04 09:08:02;;;;;;;3.05;0.82;;;;;;;17.73;59.37;101451.72;4948656;28;113039;-67
2021/10/04 09:10:32;;;;;;;3.30;0.85;;;;;;;17.86;59.08;101458.00;4967243;28;124303;-67
2021/10/04 09:13:08;;;;;;;3.33;0.90;;;;;;;17.95;58.85;101460.09;4966677;28;124493;-67
2021/10/04 09:15:41;;;;;;;9.18;1.00;;;;;;;18.05;58.67;101463.00;4946236;28;114183;-66
2021/10/04 09:18:15;;;;;;;1.55;0.80;;;;;;;18.15;58.44;101463.25;4949891;28;114504;-67
2021/10/04 09:20:48;;;;;;;1.52;0.80;;;;;;;18.22;58.33;101454.69;4964601;28;124801;-67
2021/10/04 09:23:56;;;;;;;1.80;0.70;;;;;;;18.32;58.35;101465.66;4967133;28;124004;-66
2021/10/04 09:26:26;;;;;;;2.75;0.85;;;;;;;18.41;58.18;101474.91;4968776;28;114196;-67
2021/10/04 09:29:11;;;;;;;5.15;1.00;;;;;;;18.47;58.12;101459.22;4943950;28;114253;-67
2021/10/04 09:31:41;;;;;;;3.28;0.90;;;;;;;18.54;57.72;101461.50;4962558;28;124857;-67
2021/10/04 09:34:17;;;;;;;3.13;0.90;;;;;;;18.59;57.55;101462.03;4948032;28;124600;-68
2021/10/04 09:36:58;;;;;;;2.63;0.93;;;;;;;18.67;57.64;101470.44;4971468;28;114224;-67
2021/10/04 09:39:36;;;;;;;2.75;0.80;;;;;;;18.73;57.36;101467.31;4964837;28;114358;-67
2021/10/04 09:42:10;;;;;;;4.57;0.90;;;;;;;18.81;57.19;101462.28;4962205;28;124258;-67
2021/10/04 09:44:57;;;;;;;1.93;0.70;;;;;;;18.90;57.39;101457.25;4971401;28;125281;-67
2021/10/04 09:47:31;;;;;;;3.13;0.73;;;;;;;18.99;57.28;101456.63;4958743;28;115448;-66
2021/10/04 09:50:27;;;;;;;4.07;0.90;;;;;;;19.06;57.12;101465.94;4961518;28;115212;-67
2021/10/04 09:52:56;;;;;;;;;;;;;;;19.13;57.55;101455.63;4961861;28;123933;-66
2021/10/04 09:55:31;;;;;;;2.28;0.77;;;;;;;19.20;56.97;101452.38;4956870;28;125039;-67
2021/10/04 09:58:18;;;;;;;2.97;0.82;;;;;;;19.26;56.85;101451.94;4956498;28;114539;-66
2021/10/04 10:00:57;;;;;;;2.97;0.70;;;;;;;19.31;56.83;101456.13;4959314;28;113985;-66
2021/10/04 10:03:38;;;;;;;4.45;0.90;;;;;;;19.37;56.61;101458.38;4960276;28;124028;-66
2021/10/04 10:06:05;;;;;;;3.05;0.80;;;;;;;19.41;56.34;101460.72;4951381;28;123910;-67
2021/10/04 10:08:33;;;;;;;5.03;0.85;;;;;;;19.46;56.31;101457.72;4964754;28;114606;-66
2021/10/04 10:11:04;;;;;;;1.70;0.70;;;;;;;19.53;56.08;101452.72;4956929;28;114417;-66
2021/10/04 10:13:33;;;;;;;3.28;0.85;;;;;;;19.56;55.84;101450.69;4966853;28;124119;-66
2021/10/04 10:16:37;;;;;;;2.92;0.70;;;;;;;19.63;56.13;101443.03;4967700;28;123744;-66
2021/10/04 10:19:08;;;;;;;1.88;0.70;;;;;;;19.70;55.74;101449.66;4928711;28;115033;-66
2021/10/04 10:21:37;;;;;;;2.55;0.73;;;;;;;19.76;55.63;101448.38;4962027;28;113842;-71
2021/10/04 10:24:07;;;;;;;2.53;0.73;;;;;;;19.81;55.46;101440.84;4957959;28;124700;-66
2021/10/04 10:26:35;;;;;;;3.42;0.70;;;;;;;19.88;55.33;101444.78;4965929;28;123909;-67
2021/10/04 10:29:20;;;;;;;2.13;0.70;;;;;;;19.93;55.28;101439.94;4965737;28;114223;-67
2021/10/04 10:31:48;;;;;;;;;;;;;;;19.99;55.69;101439.47;4947636;28;112745;-66
2021/10/04 10:34:24;;;;;;;4.03;0.75;;;;;;;20.07;55.14;101440.72;4951741;28;123646;-66
2021/10/04 10:37:01;;;;;;;3.53;0.75;;;;;;;20.12;54.52;101446.63;4960791;28;123847;-67
2021/10/04 10:39:37;;;;;;;1.90;0.50;;;;;;;20.14;54.34;101447.34;4953077;28;113946;-66
2021/10/04 10:42:16;;;;;;;4.88;0.70;;;;;;;20.14;54.40;101444.66;4960573;28;114957;-64
2021/10/04 10:44:54;;;;;;;2.97;0.98;;;;;;;20.19;54.50;101439.78;4950764;28;124155;-65
2021/10/04 10:47:33;;;;;;;2.60;0.70;;;;;;;20.26;54.25;101451.78;4965833;28;124411;-64
2021/10/04 10:50:02;;;;;;;4.95;0.85;;;;;;;20.32;53.86;101450.47;4962537;28;114658;-65
2021/10/04 10:52:31;;;;;;;2.25;0.75;;;;;;;20.37;54.01;101459.03;4961565;28;113945;-65
2021/10/04 10:55:01;;;;;;;2.28;0.75;;;;;;;20.45;53.72;101451.22;4942302;28;122926;-65
2021/10/04 10:58:02;;;;;;;3.72;0.80;;;;;;;20.53;53.89;101464.09;4956644;28;124213;-65
2021/10/04 11:00:31;;;;;;;5.35;0.70;;;;;;;20.63;53.72;101465.13;4954731;28;114444;-65
2021/10/04 11:03:11;;;;;;;2.50;0.68;;;;;;;20.72;53.47;101464.41;4964490;28;114016;-65
2021/10/04 11:05:39;;;;;;;1.38;0.60;;;;;;;20.80;52.90;101472.75;4937590;28;123578;-67
2021/10/04 11:08:09;;;;;;;5.05;0.82;;;;;;;20.80;52.32;101472.75;4914205;28;124895;-67
2021/10/04 11:10:51;;;;;;;2.00;0.52;;;;;;;20.82;52.52;101469.09;4913818;28;114146;-67
2021/10/04 11:13:33;;;;;;;5.82;0.80;;;;;;;20.85;52.56;101458.06;4913327;28;113959;-68
2021/10/04 11:16:24;;;;;;;4.07;0.88;;;;;;;20.93;52.76;101456.50;4917243;28;124000;-67
2021/10/04 11:18:53;;;;;;;4.30;0.70;;;;;;;21.03;52.34;101456.59;4919658;28;123144;-67
2021/10/04 11:21:24;;;;;;;4.25;0.75;;;;;;;21.10;51.97;101452.44;4929606;28;114343;-68
2021/10/04 11:23:54;;;;;;;2.95;0.90;;;;;;;21.13;51.67;101452.19;4932003;28;114629;-67
2021/10/04 11:26:25;;;;;;;2.65;0.70;;;;;;;21.16;51.78;101445.72;4929737;28;124342;-67
2021/10/04 11:28:58;;;;;;;2.03;0.70;;;;;;;21.19;51.59;101446.31;4926699;28;124715;-69